Terminal Aerodrome Forecast
Issued by NWS Knoxville/Tri Cities, TN

Home | Current Version | Previous Version | Text Only | Print | Product List | Glossary On
Versions: 1 2 3 4 5 6 7 8 9 10 11 12
000
FTUS44 KMRX 251125
TAFCHA
TAF
KCHA 251125Z 2512/2612 VRB02KT P6SM BKN070
     FM251400 21004KT P6SM SCT050
     FM252100 34003KT P6SM SCT150
     FM260200 00000KT P6SM FEW120=

USA.gov is the U.S. government's official web portal to all federal, state and local government web resources and services.